KAFF Airport (Usaf Academy Afld) Information

FAA: AFF - ICAO: KAFF

KAFF Airport Location

State Colorado
County El Paso
City Colorado Springs
KAFF Airport is 10 miles north of Colorado Springs, CO.
Latitude 38-58-24.2091N
Longitude 104-49-12.1178W
Elevation 6,576ft

KAFF Airport METARs

METAR KAFF 200358Z AUTO 36007KT 10SM CLR 01/M02 A3009 RMK AO2 SLP167 T00051019
Altimeter 30.09"
Temperature 0.5°C (32.9°F)
Wind 360° at 7KT
Clouds Skies are clear.
Visibility 10.0mi
Time observed: 2021-10-20T03:58:00Z

KAFF Airport Details

Status Operational
Activation January 1943
Ownership Military - Air Force
Usage Private
Chart DENVER
ATC on-site Yes
Beacon schedule N/A
Beacon color N/A

KAFF Airport Contacts

Owner USAF
Owner address HQS USAF ACADEMY, COLORADO SPRINGS, CO 80901
Owner phone N/A
Manager RICK MCGUFFIN
Manager address 6083 EAST WOODMEN ROAD, COLORADO SPRINGS, CO 80923
Manager phone 719-571-8954

KAFF Airport (Usaf Academy Afld) Radio Frequencies

KAFF (Airport) Radio Frequencies

UNICOM N/A
Common traffic advisory frequency (CTAF) 124.15